createdAt,value
2023-05-20T00:00:51.082Z,497.00
2023-05-20T00:01:51.131Z,496.00
2023-05-20T00:02:51.293Z,497.00
2023-05-20T00:03:51.443Z,496.00
2023-05-20T00:04:51.406Z,496.00
2023-05-20T00:05:51.390Z,496.00
2023-05-20T00:06:51.440Z,497.00
2023-05-20T00:07:51.514Z,495.00
2023-05-20T00:08:51.533Z,496.00
2023-05-20T00:09:51.617Z,494.00
2023-05-20T00:10:51.668Z,494.00
2023-05-20T00:11:51.725Z,495.00
2023-05-20T00:12:51.830Z,496.00
2023-05-20T00:13:51.826Z,496.00
2023-05-20T00:14:53.721Z,496.00
2023-05-20T00:15:51.943Z,495.00
2023-05-20T00:16:52.071Z,496.00
2023-05-20T00:17:52.118Z,496.00
2023-05-20T00:18:52.176Z,495.00
2023-05-20T00:19:52.192Z,495.00
2023-05-20T00:20:52.249Z,496.00
2023-05-20T00:21:52.374Z,495.00
2023-05-20T00:22:52.389Z,495.00
2023-05-20T00:23:52.460Z,494.00
2023-05-20T00:24:52.478Z,495.00
2023-05-20T00:25:52.547Z,495.00
2023-05-20T00:26:52.582Z,496.00
2023-05-20T00:27:52.674Z,494.00
2023-05-20T00:28:52.719Z,493.00
2023-05-20T00:29:52.782Z,493.00
2023-05-20T00:30:52.820Z,494.00
2023-05-20T00:31:53.021Z,494.00
2023-05-20T00:32:53.026Z,496.00
2023-05-20T00:33:53.009Z,496.00
2023-05-20T00:34:53.075Z,494.00
2023-05-20T00:35:53.099Z,496.00
2023-05-20T00:36:53.169Z,495.00
2023-05-20T00:37:53.252Z,494.00
2023-05-20T00:38:53.271Z,494.00
2023-05-20T00:39:53.335Z,493.00
2023-05-20T00:40:53.383Z,493.00
2023-05-20T00:41:53.467Z,492.00
2023-05-20T00:42:53.504Z,493.00
2023-05-20T00:43:53.555Z,492.00
2023-05-20T00:44:53.629Z,493.00
2023-05-20T00:45:53.744Z,494.00
2023-05-20T00:46:53.747Z,492.00
2023-05-20T00:47:53.839Z,495.00
2023-05-20T00:48:53.866Z,496.00
2023-05-20T00:49:53.948Z,497.00
2023-05-20T00:50:53.997Z,493.00
2023-05-20T00:51:54.051Z,490.00
2023-05-20T00:52:54.132Z,492.00
2023-05-20T00:53:54.164Z,492.00
2023-05-20T00:54:54.300Z,490.00
2023-05-20T00:55:54.306Z,490.00
2023-05-20T00:56:54.358Z,490.00
2023-05-20T00:57:54.466Z,489.00
2023-05-20T00:58:54.497Z,490.00
2023-05-20T00:59:54.550Z,488.00
2023-05-20T01:00:54.647Z,487.00
2023-05-20T01:01:54.741Z,485.00
2023-05-20T01:02:54.922Z,484.00
2023-05-20T01:03:54.843Z,483.00
2023-05-20T01:04:54.918Z,484.00
2023-05-20T01:05:54.969Z,486.00
2023-05-20T01:06:54.951Z,488.00
2023-05-20T01:07:55.037Z,489.00
2023-05-20T01:08:55.068Z,490.00
2023-05-20T01:09:55.138Z,491.00
2023-05-20T01:10:55.190Z,491.00
2023-05-20T01:11:55.241Z,493.00
2023-05-20T01:12:55.328Z,496.00
2023-05-20T01:13:55.380Z,495.00
2023-05-20T01:14:55.448Z,491.00
2023-05-20T01:15:55.556Z,493.00
2023-05-20T01:16:55.564Z,493.00
2023-05-20T01:17:55.686Z,494.00
2023-05-20T01:18:55.758Z,493.00
2023-05-20T01:19:55.747Z,493.00
2023-05-20T01:20:55.770Z,493.00
2023-05-20T01:21:55.842Z,494.00
2023-05-20T01:22:55.954Z,495.00
2023-05-20T01:23:55.956Z,493.00
2023-05-20T01:24:56.061Z,493.00
2023-05-20T01:25:56.070Z,494.00
2023-05-20T01:26:56.137Z,494.00
2023-05-20T01:27:56.229Z,495.00
2023-05-20T01:28:56.261Z,493.00
2023-05-20T01:29:56.311Z,492.00
2023-05-20T01:30:56.399Z,494.00
2023-05-20T01:31:56.494Z,493.00
2023-05-20T01:32:56.549Z,495.00
2023-05-20T01:33:56.546Z,497.00
2023-05-20T01:34:56.617Z,497.00
2023-05-20T01:35:56.668Z,498.00
2023-05-20T01:36:56.717Z,498.00
2023-05-20T01:37:56.800Z,497.00
2023-05-20T01:38:56.832Z,497.00
2023-05-20T01:39:56.921Z,496.00
2023-05-20T01:40:56.973Z,497.00
2023-05-20T01:41:57.027Z,498.00
2023-05-20T01:42:57.081Z,500.00
2023-05-20T01:43:57.161Z,498.00
2023-05-20T01:44:57.206Z,498.00
2023-05-20T01:45:57.276Z,497.00
2023-05-20T01:46:57.459Z,498.00
2023-05-20T01:47:57.430Z,499.00
2023-05-20T01:48:57.461Z,498.00
2023-05-20T01:49:57.569Z,498.00
2023-05-20T01:50:57.572Z,498.00
2023-05-20T01:51:57.613Z,496.00
2023-05-20T01:52:57.694Z,497.00
2023-05-20T01:53:57.765Z,497.00
2023-05-20T01:54:57.805Z,497.00
2023-05-20T01:55:57.882Z,495.00
2023-05-20T01:56:57.936Z,495.00
2023-05-20T01:57:58.019Z,496.00
2023-05-20T01:58:58.049Z,494.00
2023-05-20T01:59:58.107Z,493.00
2023-05-20T02:00:58.194Z,492.00
2023-05-20T02:01:58.259Z,491.00
2023-05-20T02:02:58.302Z,493.00
2023-05-20T02:03:58.357Z,494.00
2023-05-20T02:04:58.395Z,494.00
2023-05-20T02:05:58.492Z,497.00
2023-05-20T02:06:58.528Z,497.00
2023-05-20T02:07:58.571Z,498.00
2023-05-20T02:08:58.642Z,500.00
2023-05-20T02:09:58.693Z,499.00
2023-05-20T02:10:58.740Z,497.00
2023-05-20T02:11:58.812Z,498.00
2023-05-20T02:12:58.885Z,497.00
2023-05-20T02:13:58.935Z,498.00
2023-05-20T02:14:59.002Z,500.00
2023-05-20T02:15:59.117Z,499.00
2023-05-20T02:16:59.124Z,498.00
2023-05-20T02:17:59.240Z,496.00
2023-05-20T02:18:59.259Z,493.00
2023-05-20T02:19:59.312Z,494.00
2023-05-20T02:20:59.360Z,493.00
2023-05-20T02:21:59.430Z,494.00
2023-05-20T02:22:59.486Z,495.00
2023-05-20T02:23:59.548Z,495.00
2023-05-20T02:24:59.617Z,494.00
2023-05-20T02:25:59.692Z,494.00
2023-05-20T02:26:59.764Z,491.00
2023-05-20T02:27:59.804Z,494.00
2023-05-20T02:28:59.879Z,495.00
2023-05-20T02:29:59.924Z,494.00
2023-05-20T02:30:59.991Z,493.00
2023-05-20T02:32:00.072Z,493.00
2023-05-20T02:33:00.153Z,492.00
2023-05-20T02:34:00.250Z,492.00
2023-05-20T02:35:00.283Z,493.00
2023-05-20T02:36:00.283Z,494.00
2023-05-20T02:37:00.349Z,493.00
2023-05-20T02:38:00.400Z,490.00
2023-05-20T02:39:00.476Z,490.00
2023-05-20T02:40:00.558Z,490.00
2023-05-20T02:41:00.588Z,492.00
2023-05-20T02:42:00.672Z,490.00
2023-05-20T02:43:00.730Z,490.00
2023-05-20T02:44:00.815Z,490.00
2023-05-20T02:45:00.834Z,491.00
2023-05-20T02:46:00.954Z,491.00
2023-05-20T02:47:00.935Z,489.00
2023-05-20T02:48:01.108Z,487.00
2023-05-20T02:49:01.063Z,489.00
2023-05-20T02:50:01.117Z,493.00
2023-05-20T02:51:01.169Z,492.00
2023-05-20T02:52:01.219Z,493.00
2023-05-20T02:53:01.310Z,494.00
2023-05-20T02:54:01.335Z,494.00
2023-05-20T02:55:01.406Z,496.00
2023-05-20T02:56:01.505Z,497.00
2023-05-20T02:57:01.513Z,498.00
2023-05-20T02:58:01.587Z,496.00
2023-05-20T02:59:01.673Z,494.00
2023-05-20T03:00:01.714Z,492.00
2023-05-20T03:01:01.849Z,493.00
2023-05-20T03:02:01.903Z,493.00
2023-05-20T03:03:01.919Z,492.00
2023-05-20T03:04:02.022Z,492.00
2023-05-20T03:05:02.025Z,495.00
2023-05-20T03:06:02.093Z,495.00
2023-05-20T03:07:02.155Z,495.00
2023-05-20T03:08:02.235Z,496.00
2023-05-20T03:09:02.285Z,493.00
2023-05-20T03:10:02.351Z,494.00
2023-05-20T03:11:03.343Z,494.00
2023-05-20T03:12:02.474Z,495.00
2023-05-20T03:13:02.558Z,496.00
2023-05-20T03:14:02.599Z,497.00
2023-05-20T03:15:02.656Z,496.00
2023-05-20T03:16:02.883Z,495.00
2023-05-20T03:17:02.770Z,494.00
2023-05-20T03:18:02.950Z,496.00
2023-05-20T03:19:03.020Z,497.00
2023-05-20T03:20:02.974Z,497.00
2023-05-20T03:21:03.078Z,498.00
2023-05-20T03:22:03.081Z,498.00
2023-05-20T03:23:03.163Z,497.00
2023-05-20T03:24:03.189Z,498.00
2023-05-20T03:25:03.245Z,500.00
2023-05-20T03:26:03.342Z,501.00
2023-05-20T03:27:03.365Z,500.00
2023-05-20T03:28:03.433Z,503.00
2023-05-20T03:29:03.452Z,501.00
2023-05-20T03:30:03.498Z,501.00
2023-05-20T03:31:03.585Z,499.00
2023-05-20T03:32:03.609Z,498.00
2023-05-20T03:33:03.707Z,497.00
2023-05-20T03:34:03.727Z,499.00
2023-05-20T03:35:03.777Z,500.00
2023-05-20T03:36:03.851Z,500.00
2023-05-20T03:37:03.924Z,500.00
2023-05-20T03:38:03.978Z,501.00
2023-05-20T03:39:04.056Z,500.00
2023-05-20T03:40:04.121Z,500.00
2023-05-20T03:41:04.149Z,498.00
2023-05-20T03:42:04.216Z,495.00
2023-05-20T03:43:04.268Z,497.00
2023-05-20T03:44:04.370Z,497.00
2023-05-20T03:45:04.391Z,496.00
2023-05-20T03:46:04.467Z,497.00
2023-05-20T03:47:04.546Z,497.00
2023-05-20T03:48:04.684Z,498.00
2023-05-20T03:49:04.652Z,501.00
2023-05-20T03:50:04.682Z,500.00
2023-05-20T03:51:04.754Z,497.00
2023-05-20T03:52:04.812Z,499.00
2023-05-20T03:53:04.880Z,496.00
2023-05-20T03:54:04.958Z,498.00
2023-05-20T03:55:05.041Z,498.00
2023-05-20T03:56:05.056Z,499.00
2023-05-20T03:57:05.124Z,499.00
2023-05-20T03:58:05.179Z,498.00
2023-05-20T03:59:05.255Z,498.00
2023-05-20T04:00:05.300Z,499.00
2023-05-20T04:01:05.365Z,499.00
2023-05-20T04:02:05.458Z,499.00
2023-05-20T04:03:05.596Z,500.00
2023-05-20T04:04:05.678Z,503.00
2023-05-20T04:05:05.612Z,502.00
2023-05-20T04:06:05.687Z,502.00
2023-05-20T04:07:05.762Z,502.00
2023-05-20T04:08:05.824Z,501.00
2023-05-20T04:09:05.851Z,501.00
2023-05-20T04:10:05.920Z,500.00
2023-05-20T04:11:05.960Z,500.00
2023-05-20T04:12:06.010Z,501.00
2023-05-20T04:13:06.065Z,504.00
2023-05-20T04:14:06.139Z,503.00
2023-05-20T04:15:06.165Z,503.00
2023-05-20T04:16:06.234Z,501.00
2023-05-20T04:17:06.392Z,501.00
2023-05-20T04:18:06.409Z,505.00
2023-05-20T04:19:06.436Z,503.00
2023-05-20T04:20:06.450Z,504.00
2023-05-20T04:21:06.505Z,503.00
2023-05-20T04:22:06.549Z,503.00
2023-05-20T04:23:06.613Z,503.00
2023-05-20T04:24:06.691Z,503.00
2023-05-20T04:25:06.752Z,503.00
2023-05-20T04:26:06.792Z,501.00
2023-05-20T04:27:06.828Z,501.00
2023-05-20T04:28:06.908Z,498.00
2023-05-20T04:29:06.950Z,496.00
2023-05-20T04:30:07.018Z,498.00
2023-05-20T04:31:07.079Z,499.00
2023-05-20T04:32:07.184Z,499.00
2023-05-20T04:33:07.284Z,500.00
2023-05-20T04:34:07.273Z,502.00
2023-05-20T04:35:07.326Z,505.00
2023-05-20T04:36:07.368Z,507.00
2023-05-20T04:37:07.438Z,507.00
2023-05-20T04:38:07.501Z,504.00
2023-05-20T04:39:07.569Z,505.00
2023-05-20T04:40:07.651Z,506.00
2023-05-20T04:41:07.689Z,507.00
2023-05-20T04:42:07.749Z,508.00
2023-05-20T04:43:07.812Z,507.00
2023-05-20T04:44:07.886Z,506.00
2023-05-20T04:45:07.941Z,509.00
2023-05-20T04:46:08.168Z,509.00
2023-05-20T04:47:08.090Z,509.00
2023-05-20T04:48:08.236Z,509.00
2023-05-20T04:49:08.200Z,508.00
2023-05-20T04:50:08.262Z,507.00
2023-05-20T04:51:08.314Z,504.00
2023-05-20T04:52:08.344Z,503.00
2023-05-20T04:53:08.412Z,501.00
2023-05-20T04:54:08.494Z,498.00
2023-05-20T04:55:08.547Z,499.00
2023-05-20T04:56:08.602Z,500.00
2023-05-20T04:57:08.689Z,497.00
2023-05-20T04:58:08.761Z,495.00
2023-05-20T04:59:08.779Z,495.00
2023-05-20T05:00:08.848Z,496.00
2023-05-20T05:01:08.956Z,498.00
2023-05-20T05:02:09.002Z,498.00
2023-05-20T05:03:09.105Z,499.00
2023-05-20T05:04:09.153Z,500.00
2023-05-20T05:05:09.290Z,499.00
2023-05-20T05:06:09.271Z,499.00
2023-05-20T05:07:09.328Z,499.00
2023-05-20T05:08:09.379Z,498.00
2023-05-20T05:09:09.433Z,496.00
2023-05-20T05:10:09.511Z,496.00
2023-05-20T05:11:09.576Z,496.00
2023-05-20T05:12:09.612Z,497.00
2023-05-20T05:13:09.683Z,496.00
2023-05-20T05:14:09.755Z,497.00
2023-05-20T05:15:09.790Z,497.00
2023-05-20T05:16:09.902Z,498.00
2023-05-20T05:17:09.930Z,499.00
2023-05-20T05:18:09.996Z,499.00
2023-05-20T05:19:10.028Z,498.00
2023-05-20T05:20:10.088Z,497.00
2023-05-20T05:21:10.118Z,496.00
2023-05-20T05:22:10.162Z,493.00
2023-05-20T05:23:10.224Z,492.00
2023-05-20T05:24:10.253Z,494.00
2023-05-20T05:25:10.313Z,496.00
2023-05-20T05:26:10.356Z,497.00
2023-05-20T05:27:10.421Z,498.00
2023-05-20T05:28:10.448Z,497.00
2023-05-20T05:29:11.724Z,498.00
2023-05-20T05:30:10.544Z,498.00
2023-05-20T05:31:10.602Z,497.00
2023-05-20T05:32:10.697Z,496.00
2023-05-20T05:33:10.814Z,498.00
2023-05-20T05:34:10.717Z,499.00
2023-05-20T05:35:10.770Z,497.00
2023-05-20T05:36:10.804Z,496.00
2023-05-20T05:37:10.832Z,498.00
2023-05-20T05:38:10.896Z,498.00
2023-05-20T05:39:10.930Z,497.00
2023-05-20T05:40:10.984Z,496.00
2023-05-20T05:41:11.002Z,497.00
2023-05-20T05:42:11.037Z,495.00
2023-05-20T05:43:11.079Z,497.00
2023-05-20T05:44:11.120Z,496.00
2023-05-20T05:45:11.154Z,498.00
2023-05-20T05:46:11.186Z,500.00
2023-05-20T05:47:11.306Z,501.00
2023-05-20T05:48:11.275Z,499.00
2023-05-20T05:49:11.291Z,500.00
2023-05-20T05:50:11.338Z,503.00
2023-05-20T05:51:11.359Z,505.00
2023-05-20T05:52:11.392Z,504.00
2023-05-20T05:53:11.434Z,503.00
2023-05-20T05:54:11.449Z,503.00
2023-05-20T05:55:11.508Z,504.00
2023-05-20T05:56:11.526Z,504.00
2023-05-20T05:57:11.584Z,503.00
2023-05-20T05:58:11.588Z,503.00
2023-05-20T05:59:11.629Z,504.00
2023-05-20T06:00:11.660Z,504.00
2023-05-20T06:01:11.728Z,503.00
2023-05-20T06:02:11.790Z,503.00
2023-05-20T06:03:11.833Z,504.00
2023-05-20T06:04:11.839Z,505.00
2023-05-20T06:05:11.825Z,506.00
2023-05-20T06:06:11.872Z,508.00
2023-05-20T06:07:11.948Z,507.00
2023-05-20T06:08:11.940Z,507.00
2023-05-20T06:09:11.974Z,507.00
2023-05-20T06:10:12.043Z,510.00
2023-05-20T06:11:12.048Z,510.00
2023-05-20T06:12:13.845Z,510.00
2023-05-20T06:13:12.093Z,510.00
2023-05-20T06:14:12.161Z,511.00
2023-05-20T06:15:12.194Z,512.00
2023-05-20T06:16:12.243Z,513.00
2023-05-20T06:17:12.325Z,512.00
2023-05-20T06:18:12.289Z,511.00
2023-05-20T06:19:12.377Z,512.00
2023-05-20T06:20:12.351Z,511.00
2023-05-20T06:21:12.397Z,509.00
2023-05-20T06:22:12.408Z,509.00
2023-05-20T06:23:12.486Z,510.00
2023-05-20T06:24:12.479Z,511.00
2023-05-20T06:25:12.522Z,512.00
2023-05-20T06:26:12.552Z,511.00
2023-05-20T06:27:12.606Z,510.00
2023-05-20T06:28:12.678Z,509.00
2023-05-20T06:29:12.672Z,510.00
2023-05-20T06:30:12.735Z,511.00
2023-05-20T06:31:12.786Z,513.00
2023-05-20T06:32:12.792Z,514.00
2023-05-20T06:33:12.865Z,512.00
2023-05-20T06:34:12.859Z,514.00
2023-05-20T06:35:12.907Z,511.00
2023-05-20T06:36:12.926Z,511.00
2023-05-20T06:37:12.976Z,511.00
2023-05-20T06:38:13.041Z,510.00
2023-05-20T06:39:13.038Z,512.00
2023-05-20T06:40:13.079Z,513.00
2023-05-20T06:41:13.120Z,511.00
2023-05-20T06:42:13.152Z,510.00
2023-05-20T06:43:13.229Z,509.00
2023-05-20T06:44:13.223Z,510.00
2023-05-20T06:45:13.256Z,509.00
2023-05-20T06:46:13.330Z,508.00
2023-05-20T06:47:13.351Z,508.00
2023-05-20T06:48:13.396Z,508.00
2023-05-20T06:49:13.396Z,509.00
2023-05-20T06:50:13.469Z,511.00
2023-05-20T06:51:13.476Z,510.00
2023-05-20T06:52:13.506Z,511.00
2023-05-20T06:53:13.586Z,513.00
2023-05-20T06:54:13.583Z,513.00
2023-05-20T06:55:13.650Z,513.00
2023-05-20T06:56:13.677Z,511.00
2023-05-20T06:57:13.688Z,514.00
2023-05-20T06:58:13.746Z,513.00
2023-05-20T06:59:13.764Z,512.00
2023-05-20T07:00:13.794Z,512.00
2023-05-20T07:01:14.982Z,510.00
2023-05-20T07:02:13.974Z,512.00
2023-05-20T07:03:13.931Z,515.00
2023-05-20T07:04:13.991Z,516.00
2023-05-20T07:05:13.969Z,515.00
2023-05-20T07:06:14.003Z,516.00
2023-05-20T07:07:15.517Z,518.00
2023-05-20T07:08:14.033Z,518.00
2023-05-20T07:09:14.010Z,515.00
2023-05-20T07:10:14.005Z,515.00
2023-05-20T07:11:13.986Z,512.00
2023-05-20T07:12:13.981Z,511.00
2023-05-20T07:13:14.001Z,510.00
2023-05-20T07:14:13.974Z,509.00
2023-05-20T07:15:13.966Z,508.00
2023-05-20T07:16:13.980Z,508.00
2023-05-20T07:17:13.950Z,508.00
2023-05-20T07:18:14.009Z,505.00
2023-05-20T07:19:14.013Z,503.00
2023-05-20T07:20:13.959Z,501.00
2023-05-20T07:21:13.922Z,502.00
2023-05-20T07:22:13.924Z,502.00
2023-05-20T07:23:15.647Z,502.00
2023-05-20T07:24:13.931Z,503.00
2023-05-20T07:25:13.897Z,504.00
2023-05-20T07:26:13.912Z,503.00
2023-05-20T07:27:13.876Z,503.00
2023-05-20T07:28:13.869Z,503.00
2023-05-20T07:29:13.871Z,501.00
2023-05-20T07:30:13.861Z,503.00
2023-05-20T07:31:13.936Z,505.00
2023-05-20T07:32:13.870Z,504.00
2023-05-20T07:33:13.837Z,505.00
2023-05-20T07:34:13.837Z,506.00
2023-05-20T07:35:13.820Z,505.00
2023-05-20T07:36:13.809Z,505.00
2023-05-20T07:37:13.817Z,505.00
2023-05-20T07:38:13.815Z,505.00
2023-05-20T07:39:15.214Z,505.00
2023-05-20T07:40:13.860Z,506.00
2023-05-20T07:41:13.886Z,507.00
2023-05-20T07:42:13.896Z,507.00
2023-05-20T07:43:13.929Z,507.00
2023-05-20T07:44:13.979Z,505.00
2023-05-20T07:45:14.014Z,502.00
2023-05-20T07:46:14.014Z,504.00
2023-05-20T07:47:13.999Z,504.00
2023-05-20T07:48:14.048Z,504.00
2023-05-20T07:49:14.042Z,505.00
2023-05-20T07:50:14.062Z,506.00
2023-05-20T07:51:14.074Z,504.00
2023-05-20T07:52:14.097Z,507.00
2023-05-20T07:53:14.123Z,508.00
2023-05-20T07:54:14.134Z,507.00
2023-05-20T07:55:14.160Z,508.00
2023-05-20T07:56:14.172Z,507.00
2023-05-20T07:57:14.180Z,509.00
2023-05-20T07:58:14.191Z,509.00
2023-05-20T07:59:14.230Z,511.00
2023-05-20T08:00:14.226Z,513.00
2023-05-20T08:01:14.240Z,514.00
2023-05-20T08:02:14.332Z,516.00
2023-05-20T08:03:14.522Z,515.00
2023-05-20T08:04:14.333Z,514.00
2023-05-20T08:05:14.292Z,515.00
2023-05-20T08:06:14.308Z,514.00
2023-05-20T08:07:14.321Z,513.00
2023-05-20T08:08:14.341Z,512.00
2023-05-20T08:09:14.389Z,514.00
2023-05-20T08:10:14.413Z,514.00
2023-05-20T08:11:14.373Z,513.00
2023-05-20T08:12:14.380Z,513.00
2023-05-20T08:13:14.390Z,510.00
2023-05-20T08:14:14.399Z,509.00
2023-05-20T08:15:14.392Z,512.00
2023-05-20T08:16:14.414Z,512.00
2023-05-20T08:17:14.444Z,512.00
2023-05-20T08:18:14.422Z,509.00
2023-05-20T08:19:14.455Z,509.00
2023-05-20T08:20:14.436Z,508.00
2023-05-20T08:21:14.462Z,511.00
2023-05-20T08:22:14.456Z,509.00
2023-05-20T08:23:14.444Z,512.00
2023-05-20T08:24:14.454Z,514.00
2023-05-20T08:25:14.448Z,513.00
2023-05-20T08:26:14.473Z,514.00
2023-05-20T08:27:14.482Z,515.00
2023-05-20T08:28:14.452Z,514.00
2023-05-20T08:29:14.466Z,515.00
2023-05-20T08:30:14.552Z,516.00
2023-05-20T08:31:14.509Z,516.00
2023-05-20T08:32:14.475Z,516.00
2023-05-20T08:33:14.477Z,515.00
2023-05-20T08:34:14.497Z,512.00
2023-05-20T08:35:14.475Z,512.00
2023-05-20T08:36:14.467Z,512.00
2023-05-20T08:37:14.467Z,512.00
2023-05-20T08:38:14.467Z,513.00
2023-05-20T08:39:14.469Z,514.00
2023-05-20T08:40:14.475Z,514.00
2023-05-20T08:41:14.524Z,514.00
2023-05-20T08:42:14.462Z,513.00
2023-05-20T08:43:14.453Z,514.00
2023-05-20T08:44:14.451Z,513.00
2023-05-20T08:45:14.473Z,513.00
2023-05-20T08:46:17.437Z,514.00
2023-05-20T08:47:14.438Z,516.00
2023-05-20T08:48:14.446Z,518.00
2023-05-20T08:49:14.420Z,518.00
2023-05-20T08:50:14.429Z,516.00
2023-05-20T08:51:14.406Z,515.00
2023-05-20T08:52:14.452Z,516.00
2023-05-20T08:53:14.381Z,514.00
2023-05-20T08:54:14.373Z,515.00
2023-05-20T08:55:14.383Z,513.00
2023-05-20T08:56:14.363Z,511.00
2023-05-20T08:57:14.354Z,510.00
2023-05-20T08:58:14.354Z,511.00
2023-05-20T08:59:14.362Z,512.00
2023-05-20T09:00:14.332Z,512.00
2023-05-20T09:01:14.407Z,513.00
2023-05-20T09:02:14.422Z,514.00
2023-05-20T09:03:14.394Z,515.00
2023-05-20T09:04:14.369Z,514.00
2023-05-20T09:05:14.337Z,514.00
2023-05-20T09:06:14.303Z,512.00
2023-05-20T09:07:14.291Z,512.00
2023-05-20T09:08:14.280Z,513.00
2023-05-20T09:09:14.300Z,515.00
2023-05-20T09:10:14.279Z,516.00
2023-05-20T09:11:14.266Z,517.00
2023-05-20T09:12:14.249Z,516.00
2023-05-20T09:13:14.247Z,516.00
2023-05-20T09:14:14.242Z,516.00
2023-05-20T09:15:14.290Z,516.00
2023-05-20T09:16:14.265Z,516.00
2023-05-20T09:17:14.220Z,515.00
2023-05-20T09:18:14.209Z,516.00
2023-05-20T09:19:14.233Z,517.00
2023-05-20T09:20:14.190Z,520.00
2023-05-20T09:21:14.191Z,518.00
2023-05-20T09:22:14.180Z,518.00
2023-05-20T09:23:14.175Z,518.00
2023-05-20T09:24:14.155Z,517.00
2023-05-20T09:25:14.159Z,517.00
2023-05-20T09:26:14.167Z,519.00
2023-05-20T09:27:14.140Z,518.00
2023-05-20T09:28:14.132Z,517.00
2023-05-20T09:29:14.137Z,518.00
2023-05-20T09:30:14.143Z,522.00
2023-05-20T09:31:14.178Z,521.00
2023-05-20T09:32:14.127Z,520.00
2023-05-20T09:33:14.105Z,521.00
2023-05-20T09:34:14.088Z,519.00
2023-05-20T09:35:14.081Z,518.00
2023-05-20T09:36:16.381Z,521.00
2023-05-20T09:37:14.260Z,521.00
2023-05-20T09:38:14.225Z,521.00
2023-05-20T09:39:14.256Z,520.00
2023-05-20T09:40:14.282Z,521.00
2023-05-20T09:41:14.297Z,520.00
2023-05-20T09:42:14.297Z,520.00
2023-05-20T09:43:14.285Z,518.00
2023-05-20T09:44:14.294Z,517.00
2023-05-20T09:45:14.311Z,514.00
2023-05-20T09:46:14.392Z,512.00
2023-05-20T09:47:14.357Z,510.00
2023-05-20T09:48:14.416Z,510.00
2023-05-20T09:49:14.425Z,509.00
2023-05-20T09:50:14.441Z,507.00
2023-05-20T09:51:14.468Z,508.00
2023-05-20T09:52:14.515Z,508.00
2023-05-20T09:53:14.560Z,508.00
2023-05-20T09:54:14.567Z,508.00
2023-05-20T09:55:14.582Z,510.00
2023-05-20T09:56:14.580Z,509.00
2023-05-20T09:57:14.617Z,510.00
2023-05-20T09:58:16.166Z,509.00
2023-05-20T09:59:14.650Z,511.00
2023-05-20T10:00:14.690Z,513.00
2023-05-20T10:01:14.732Z,510.00
2023-05-20T10:02:14.765Z,510.00
2023-05-20T10:03:14.852Z,510.00
2023-05-20T10:04:14.795Z,509.00
2023-05-20T10:05:14.797Z,507.00
2023-05-20T10:06:14.814Z,506.00
2023-05-20T10:07:14.841Z,506.00
2023-05-20T10:08:14.894Z,505.00
2023-05-20T10:09:14.901Z,504.00
2023-05-20T10:10:14.935Z,505.00
2023-05-20T10:11:14.937Z,504.00
2023-05-20T10:12:14.953Z,503.00
2023-05-20T10:13:14.990Z,502.00
2023-05-20T10:14:15.031Z,502.00
2023-05-20T10:15:15.067Z,504.00
2023-05-20T10:16:15.117Z,504.00
2023-05-20T10:17:15.152Z,502.00
2023-05-20T10:18:15.197Z,501.00
2023-05-20T10:19:15.252Z,503.00
2023-05-20T10:20:15.275Z,504.00
2023-05-20T10:21:15.304Z,504.00
2023-05-20T10:22:15.349Z,502.00
2023-05-20T10:23:15.410Z,501.00
2023-05-20T10:24:15.455Z,498.00
2023-05-20T10:25:15.500Z,496.00
2023-05-20T10:26:15.552Z,496.00
2023-05-20T10:27:15.737Z,496.00
2023-05-20T10:28:15.632Z,496.00
2023-05-20T10:29:15.660Z,496.00
2023-05-20T10:30:15.828Z,497.00
2023-05-20T10:31:15.728Z,496.00
2023-05-20T10:32:15.787Z,495.00
2023-05-20T10:33:15.763Z,494.00
2023-05-20T10:34:15.781Z,497.00
2023-05-20T10:35:15.802Z,498.00
2023-05-20T10:36:15.809Z,497.00
2023-05-20T10:37:15.830Z,498.00
2023-05-20T10:38:15.853Z,496.00
2023-05-20T10:39:15.870Z,495.00
2023-05-20T10:40:16.012Z,495.00
2023-05-20T10:41:15.941Z,494.00
2023-05-20T10:42:15.972Z,495.00
2023-05-20T10:43:16.015Z,494.00
2023-05-20T10:44:16.036Z,494.00
2023-05-20T10:45:16.057Z,493.00
2023-05-20T10:46:26.326Z,493.00
2023-05-20T10:47:25.610Z,494.00
2023-05-20T10:48:17.155Z,492.00
2023-05-20T10:49:16.363Z,492.00
2023-05-20T10:50:16.041Z,491.00
2023-05-20T10:51:16.033Z,489.00
2023-05-20T10:52:16.028Z,490.00
2023-05-20T10:53:29.764Z,490.00
2023-05-20T10:54:17.039Z,490.00
2023-05-20T10:55:16.005Z,488.00
2023-05-20T10:56:16.033Z,489.00
2023-05-20T10:57:16.003Z,487.00
2023-05-20T10:58:15.979Z,487.00
2023-05-20T10:59:15.986Z,489.00
2023-05-20T11:00:15.993Z,489.00
2023-05-20T11:01:16.018Z,491.00
2023-05-20T11:02:15.965Z,491.00
2023-05-20T11:03:16.070Z,488.00
2023-05-20T11:04:16.094Z,487.00
2023-05-20T11:05:15.947Z,488.00
2023-05-20T11:06:17.616Z,487.00
2023-05-20T11:07:15.994Z,488.00
2023-05-20T11:08:27.611Z,486.00
2023-05-20T11:09:17.020Z,483.00
2023-05-20T11:10:16.004Z,484.00
2023-05-20T11:11:15.989Z,483.00
2023-05-20T11:12:17.390Z,484.00
2023-05-20T11:13:16.065Z,486.00
2023-05-20T11:14:15.972Z,485.00
2023-05-20T11:15:15.965Z,485.00
2023-05-20T11:16:16.007Z,483.00
2023-05-20T11:17:15.963Z,482.00
2023-05-20T11:18:18.417Z,483.00
2023-05-20T11:19:15.974Z,482.00
2023-05-20T11:20:15.946Z,483.00
2023-05-20T11:21:15.918Z,485.00
2023-05-20T11:22:15.909Z,486.00
2023-05-20T11:23:16.088Z,486.00
2023-05-20T11:24:15.914Z,485.00
2023-05-20T11:25:15.882Z,487.00
2023-05-20T11:26:15.881Z,487.00
2023-05-20T11:27:15.883Z,489.00
2023-05-20T11:28:15.871Z,488.00
2023-05-20T11:29:15.877Z,490.00
2023-05-20T11:30:15.862Z,490.00
2023-05-20T11:31:15.853Z,491.00
2023-05-20T11:32:15.911Z,491.00
2023-05-20T11:33:15.899Z,492.00
2023-05-20T11:34:15.827Z,494.00
2023-05-20T11:35:15.827Z,492.00
2023-05-20T11:36:26.991Z,491.00
2023-05-20T11:37:16.827Z,489.00
2023-05-20T11:38:15.793Z,487.00
2023-05-20T11:39:15.811Z,488.00
2023-05-20T11:40:15.784Z,487.00
2023-05-20T11:41:15.775Z,487.00
2023-05-20T11:42:15.853Z,487.00
2023-05-20T11:43:15.771Z,485.00
2023-05-20T11:44:15.793Z,485.00
2023-05-20T11:45:15.744Z,483.00
2023-05-20T11:46:15.780Z,482.00
2023-05-20T11:47:17.673Z,482.00
2023-05-20T11:48:15.850Z,482.00
2023-05-20T11:49:15.752Z,483.00
2023-05-20T11:50:15.737Z,484.00
2023-05-20T11:51:15.731Z,483.00
2023-05-20T11:52:15.717Z,483.00
2023-05-20T11:53:15.720Z,481.00
2023-05-20T11:54:15.722Z,479.00
2023-05-20T11:55:15.695Z,479.00
2023-05-20T11:56:15.710Z,477.00
2023-05-20T11:57:15.678Z,476.00
2023-05-20T11:58:15.682Z,477.00
2023-05-20T11:59:15.666Z,478.00
2023-05-20T12:00:15.669Z,479.00
2023-05-20T12:02:16.692Z,482.00
2023-05-20T12:03:15.769Z,482.00
2023-05-20T12:04:15.694Z,482.00
2023-05-20T12:05:15.626Z,481.00
2023-05-20T12:06:15.627Z,482.00
2023-05-20T12:07:15.614Z,483.00
2023-05-20T12:08:15.624Z,485.00
2023-05-20T12:09:15.615Z,484.00
2023-05-20T12:10:15.602Z,482.00
2023-05-20T12:11:15.617Z,482.00
2023-05-20T12:12:15.676Z,483.00
2023-05-20T12:13:15.718Z,484.00
2023-05-20T12:14:15.796Z,484.00
2023-05-20T12:15:15.813Z,482.00
2023-05-20T12:16:15.906Z,480.00
2023-05-20T12:17:15.868Z,479.00
2023-05-20T12:18:15.906Z,477.00
2023-05-20T12:19:15.994Z,479.00
2023-05-20T12:20:15.980Z,481.00
2023-05-20T12:21:16.027Z,481.00
2023-05-20T12:22:16.048Z,480.00
2023-05-20T12:23:16.064Z,480.00
2023-05-20T12:24:16.101Z,479.00
2023-05-20T12:25:16.188Z,480.00
2023-05-20T12:26:16.182Z,478.00
2023-05-20T12:27:16.208Z,478.00
2023-05-20T12:28:16.254Z,479.00
2023-05-20T12:29:16.274Z,478.00
2023-05-20T12:30:16.302Z,479.00